Time;durP1;ratioP1;P1;durP2;ratioP2;P2;SDS_P1;SDS_P2;PMS_P1;PMS_P2;Temp;Humidity;BMP_temperature;BMP_pressure;BME280_temperature;BME280_humidity;BME280_pressure;Samples;Min_cycle;Max_cycle;Signal;HPM_P1;HPM_P2
2022/09/19 00:01:32;;;;;;;12.52;2.03;;;;;;;7.74;100.00;101760.53;4900315;29;20554;-93
2022/09/19 00:04:01;;;;;;;8.07;1.90;;;;;;;7.73;100.00;101757.94;4900945;29;20066;-93
2022/09/19 00:06:28;;;;;;;7.00;1.90;;;;;;;7.72;100.00;101758.78;4909214;29;20512;-92
2022/09/19 00:08:54;;;;;;;9.63;1.98;;;;;;;7.82;100.00;101763.97;4898346;29;20028;-92
2022/09/19 00:11:20;;;;;;;9.68;2.13;;;;;;;7.89;100.00;101788.09;4922931;29;20020;-91
2022/09/19 00:13:48;;;;;;;9.00;2.00;;;;;;;7.76;100.00;101776.00;4906261;29;20076;-92
2022/09/19 00:16:21;;;;;;;11.48;2.15;;;;;;;7.73;100.00;101773.41;4921957;29;20547;-92
2022/09/19 00:18:48;;;;;;;12.48;1.95;;;;;;;7.63;100.00;101753.63;4899724;29;20047;-92
2022/09/19 00:21:21;;;;;;;19.83;2.40;;;;;;;7.79;100.00;101779.44;4926347;29;20450;-92
2022/09/19 00:26:35;;;;;;;12.05;1.90;;;;;;;7.69;100.00;101766.53;4924511;29;20185;-92
2022/09/19 00:29:02;;;;;;;8.30;1.80;;;;;;;7.63;100.00;101758.78;4902226;29;20044;-92
2022/09/19 00:31:28;;;;;;;10.98;1.90;;;;;;;7.67;100.00;101765.66;4917505;29;20067;-92
2022/09/19 00:33:54;;;;;;;14.40;2.17;;;;;;;7.69;100.00;101769.09;4897017;29;20107;-92
2022/09/19 00:36:20;;;;;;;12.60;1.90;;;;;;;7.54;100.00;101752.72;4907029;29;20032;-91
2022/09/19 00:38:46;;;;;;;12.00;2.28;;;;;;;7.49;100.00;101746.69;4918191;29;20016;-92
2022/09/19 00:41:17;;;;;;;15.55;2.30;;;;;;;7.57;100.00;101764.78;4914191;29;20038;-91
2022/09/19 00:43:45;;;;;;;8.88;1.98;;;;;;;7.68;100.00;101781.16;4913662;29;20036;-92
2022/09/19 00:46:10;;;;;;;10.13;2.05;;;;;;;7.57;100.00;101762.19;4898022;29;20059;-91
2022/09/19 00:48:41;;;;;;;8.57;2.15;;;;;;;7.58;100.00;101775.94;4927983;29;20624;-92
2022/09/19 00:51:11;;;;;;;11.18;2.15;;;;;;;7.52;100.00;101764.75;4895242;29;20036;-92
2022/09/19 00:53:37;;;;;;;12.63;2.25;;;;;;;7.61;100.00;101787.13;4883588;29;20233;-91
2022/09/19 00:56:04;;;;;;;10.20;2.10;;;;;;;7.49;100.00;101776.78;4924049;29;20044;-92
2022/09/19 00:58:43;;;;;;;8.48;2.15;;;;;;;7.48;100.00;101773.34;4901021;29;20051;-92
2022/09/19 01:01:09;;;;;;;6.40;1.67;;;;;;;7.61;100.00;101800.03;4905200;29;20458;-91
2022/09/19 01:03:34;;;;;;;9.82;2.00;;;;;;;7.65;100.00;101803.47;4913393;29;20036;-92
2022/09/19 01:06:32;;;;;;;10.27;2.10;;;;;;;7.63;100.00;101800.91;4912832;29;20058;-91
2022/09/19 01:09:40;;;;;;;11.00;2.47;;;;;;;7.68;100.00;101804.38;4900212;29;20040;-93
2022/09/19 01:12:47;;;;;;;14.63;1.90;;;;;;;7.56;100.00;101788.00;4895660;29;20043;-93
2022/09/19 01:15:55;;;;;;;10.60;2.10;;;;;;;7.64;100.00;101812.97;4916548;29;20080;-92
2022/09/19 01:18:28;;;;;;;8.80;1.88;;;;;;;7.65;100.00;101812.09;4914027;29;20021;-93
2022/09/19 01:24:16;;;;;;;8.60;1.80;;;;;;;7.63;100.00;101802.63;4925173;29;20153;-94
2022/09/19 01:27:18;;;;;;;10.00;2.00;;;;;;;7.60;100.00;101806.06;4906665;29;20127;-92
2022/09/19 01:29:54;;;;;;;9.07;1.83;;;;;;;7.74;100.00;101819.00;4899011;29;20062;-92
2022/09/19 01:32:28;;;;;;;8.05;1.80;;;;;;;7.74;100.00;101811.25;4915410;29;20096;-94
2022/09/19 01:34:59;;;;;;;8.15;2.08;;;;;;;7.74;100.00;101806.09;4915523;29;20389;-92
2022/09/19 01:37:38;;;;;;;12.93;1.92;;;;;;;7.86;100.00;101811.28;4905075;29;20024;-92
2022/09/19 01:40:05;;;;;;;9.88;1.70;;;;;;;7.78;100.00;101790.63;4899093;29;20032;-93
2022/09/19 01:42:31;;;;;;;8.70;1.90;;;;;;;7.84;100.00;101793.25;4907242;29;20035;-93
2022/09/19 01:44:57;;;;;;;6.80;1.70;;;;;;;7.90;100.00;101803.59;4934606;29;20031;-93
2022/09/19 01:47:38;;;;;;;13.13;1.80;;;;;;;7.98;100.00;101815.66;4898882;29;20382;-92
2022/09/19 01:50:25;;;;;;;9.68;1.88;;;;;;;7.81;100.00;101789.78;4912111;29;20024;-94
2022/09/19 01:53:07;;;;;;;15.93;2.30;;;;;;;7.96;100.00;101825.09;4929384;29;20122;-93
2022/09/19 01:55:46;;;;;;;12.15;1.80;;;;;;;7.91;100.00;101828.50;4897862;29;20078;-93
2022/09/19 01:58:34;;;;;;;10.18;1.80;;;;;;;7.84;100.00;101813.03;4911968;29;20035;-93
2022/09/19 02:01:47;;;;;;;13.43;1.75;;;;;;;7.81;100.00;101813.88;4913015;29;20027;-93
2022/09/19 02:04:21;;;;;;;14.68;2.10;;;;;;;7.79;100.00;101810.41;4907937;29;20031;-93
2022/09/19 02:07:08;;;;;;;10.73;1.63;;;;;;;7.81;100.00;101831.94;4915577;29;20552;-92
2022/09/19 02:10:09;;;;;;;9.88;1.60;;;;;;;7.88;100.00;101831.09;4911314;29;20393;-92
2022/09/19 02:12:38;;;;;;;7.47;1.73;;;;;;;7.77;100.00;101817.31;4913578;29;20044;-92
2022/09/19 02:15:09;;;;;;;7.88;1.70;;;;;;;7.77;100.00;101822.47;4906040;29;20410;-92
2022/09/19 02:17:44;;;;;;;9.65;1.90;;;;;;;7.81;100.00;101829.34;4914008;29;20103;-92
2022/09/19 02:20:21;;;;;;;10.05;1.55;;;;;;;7.72;100.00;101829.31;4906996;29;20035;-91
2022/09/19 02:22:54;;;;;;;10.10;1.92;;;;;;;7.59;100.00;101806.03;4896477;29;20526;-91
2022/09/19 02:25:25;;;;;;;13.18;2.00;;;;;;;7.72;100.00;101834.47;4924163;29;20032;-92
2022/09/19 02:28:00;;;;;;;9.13;1.80;;;;;;;7.55;100.00;101807.75;4910804;29;20051;-92
2022/09/19 02:30:26;;;;;;;6.95;1.80;;;;;;;7.64;100.00;101836.19;4896831;29;20054;-92
2022/09/19 02:32:53;;;;;;;11.52;1.83;;;;;;;7.67;100.00;101830.16;4919454;29;20054;-91
2022/09/19 02:35:34;;;;;;;9.50;1.52;;;;;;;7.69;100.00;101844.81;4914787;29;20439;-93
2022/09/19 02:38:16;;;;;;;10.20;1.77;;;;;;;7.56;100.00;101824.09;4913143;29;20047;-91
2022/09/19 02:41:00;;;;;;;10.23;1.63;;;;;;;7.67;100.00;101843.06;4913106;29;20036;-92
2022/09/19 02:43:36;;;;;;;7.28;1.80;;;;;;;7.51;100.00;101813.75;4895493;29;20040;-92
2022/09/19 02:46:20;;;;;;;7.78;1.73;;;;;;;7.52;100.00;101823.22;4913968;29;20055;-91
2022/09/19 02:48:56;;;;;;;8.90;1.70;;;;;;;7.50;100.00;101820.66;4913989;29;20490;-92
2022/09/19 02:51:34;;;;;;;8.55;2.00;;;;;;;7.64;100.00;101849.09;4916341;29;20039;-91
2022/09/19 02:54:10;;;;;;;11.15;2.17;;;;;;;7.56;100.00;101826.69;4911921;29;20036;-91
2022/09/19 02:56:40;;;;;;;8.32;1.67;;;;;;;7.61;100.00;101845.63;4896734;29;20035;-92
2022/09/19 02:59:17;;;;;;;11.43;2.13;;;;;;;7.53;100.00;101828.38;4913631;29;20027;-92
2022/09/19 03:01:50;;;;;;;10.68;1.88;;;;;;;7.58;100.00;101840.44;4913830;29;20028;-92
2022/09/19 03:04:20;;;;;;;8.93;1.70;;;;;;;7.50;100.00;101823.22;4884641;29;20028;-92
2022/09/19 03:07:02;;;;;;;7.53;1.65;;;;;;;7.56;100.00;101837.88;4912559;29;20060;-91
2022/09/19 03:09:30;;;;;;;11.75;1.67;;;;;;;7.48;100.00;101824.06;4912603;29;20120;-93
2022/09/19 03:12:14;;;;;;;8.35;1.85;;;;;;;7.56;100.00;101842.16;4897291;29;20032;-93
2022/09/19 03:14:40;;;;;;;14.32;1.90;;;;;;;7.45;100.00;101824.91;4905801;29;20030;-92
2022/09/19 03:17:07;;;;;;;13.50;1.65;;;;;;;7.56;100.00;101844.75;4897789;29;20107;-92
2022/09/19 03:19:32;;;;;;;8.13;1.77;;;;;;;7.62;100.00;101845.63;4913209;29;20107;-93
2022/09/19 03:21:58;;;;;;;8.35;1.80;;;;;;;7.61;100.00;101843.91;4911174;29;20115;-95
2022/09/19 03:24:26;;;;;;;11.10;2.13;;;;;;;7.68;100.00;101850.81;4913055;29;20035;-94
2022/09/19 03:26:51;;;;;;;6.47;1.55;;;;;;;7.59;100.00;101839.56;4914926;29;20026;-94
2022/09/19 03:29:17;;;;;;;9.50;1.50;;;;;;;7.56;100.00;101819.81;4914875;29;20056;-94
2022/09/19 03:31:45;;;;;;;7.38;1.60;;;;;;;7.72;100.00;101855.13;4898706;29;20072;-94
2022/09/19 03:34:12;;;;;;;10.02;1.70;;;;;;;7.67;100.00;101849.09;4898828;29;20020;-94
2022/09/19 03:36:40;;;;;;;9.68;1.80;;;;;;;7.72;100.00;101851.69;4896189;29;20048;-93
2022/09/19 03:39:05;;;;;;;8.10;2.00;;;;;;;7.64;100.00;101837.91;4912760;29;20020;-93
2022/09/19 03:41:31;;;;;;;10.65;1.80;;;;;;;7.54;100.00;101830.13;4896994;29;20035;-93
2022/09/19 03:44:01;;;;;;;11.80;1.83;;;;;;;7.64;100.00;101841.34;4897527;29;20494;-94
2022/09/19 03:46:28;;;;;;;10.70;1.90;;;;;;;7.55;100.00;101833.56;4916661;29;20087;-94
2022/09/19 03:48:53;;;;;;;13.10;1.90;;;;;;;7.52;100.00;101834.41;4916424;29;20028;-94
2022/09/19 03:51:19;;;;;;;9.18;1.70;;;;;;;7.53;100.00;101830.09;4900908;29;20051;-94
2022/09/19 03:53:45;;;;;;;13.43;1.80;;;;;;;7.62;100.00;101843.06;4907457;29;20016;-94
2022/09/19 03:56:12;;;;;;;11.88;2.08;;;;;;;7.71;100.00;101862.88;4906049;29;20028;-94
2022/09/19 03:58:39;;;;;;;10.10;1.77;;;;;;;7.66;100.00;101838.75;4917222;29;20084;-94
2022/09/19 04:01:08;;;;;;;7.47;1.95;;;;;;;7.78;100.00;101847.41;4915396;29;20024;-93
2022/09/19 04:03:35;;;;;;;16.45;2.63;;;;;;;7.82;100.00;101851.75;4900168;29;20546;-94
2022/09/19 04:06:01;;;;;;;7.95;1.73;;;;;;;7.85;100.00;101843.13;4896947;29;20067;-94
2022/09/19 04:08:28;;;;;;;11.02;1.70;;;;;;;7.91;100.00;101849.16;4888279;29;20471;-94
2022/09/19 04:10:53;;;;;;;11.55;2.10;;;;;;;7.91;100.00;101844.00;4900907;29;20024;-93
2022/09/19 04:13:21;;;;;;;14.35;2.30;;;;;;;7.91;100.00;101848.34;4917926;29;20047;-95
2022/09/19 04:15:47;;;;;;;10.60;1.98;;;;;;;7.94;100.00;101843.16;4909750;29;20100;-94
2022/09/19 04:18:13;;;;;;;13.05;2.15;;;;;;;8.10;100.00;101869.91;4900034;29;20025;-94
2022/09/19 04:20:39;;;;;;;11.50;1.70;;;;;;;8.02;100.00;101866.44;4911791;29;20083;-94
2022/09/19 04:23:05;;;;;;;8.48;1.52;;;;;;;8.10;100.00;101877.66;4902488;29;20032;-95
2022/09/19 04:25:35;;;;;;;14.40;2.25;;;;;;;7.99;100.00;101866.41;4901087;29;20056;-94
2022/09/19 04:28:03;;;;;;;12.88;2.05;;;;;;;8.00;100.00;101870.72;4900899;29;20444;-95
2022/09/19 04:30:34;;;;;;;10.00;1.70;;;;;;;8.07;100.00;101878.50;4900490;29;20148;-95
2022/09/19 04:33:03;;;;;;;16.73;2.45;;;;;;;7.99;100.00;101856.06;4912849;29;20490;-94
2022/09/19 04:35:35;;;;;;;13.82;1.95;;;;;;;7.93;100.00;101854.34;4900743;29;20478;-94
2022/09/19 04:38:12;;;;;;;15.25;2.10;;;;;;;7.91;100.00;101850.91;4900674;29;20030;-94
2022/09/19 04:40:42;;;;;;;11.25;1.70;;;;;;;7.99;100.00;101868.97;4916047;29;20031;-94
2022/09/19 04:43:10;;;;;;;13.02;1.92;;;;;;;7.94;100.00;101864.69;4881593;29;20114;-94
2022/09/19 04:45:37;;;;;;;11.95;1.88;;;;;;;7.98;100.00;101868.16;4924910;29;20035;-95
2022/09/19 04:48:06;;;;;;;9.43;1.60;;;;;;;7.97;100.00;101879.34;4907236;29;20033;-94
2022/09/19 04:50:35;;;;;;;5.72;1.75;;;;;;;7.94;100.00;101869.84;4892404;29;20028;-93
2022/09/19 04:53:01;;;;;;;8.77;1.60;;;;;;;7.88;100.00;101871.53;4899638;29;20507;-94
2022/09/19 04:55:27;;;;;;;12.43;1.95;;;;;;;7.83;100.00;101863.78;4916569;29;20028;-94
2022/09/19 04:57:54;;;;;;;8.77;2.03;;;;;;;7.90;100.00;101881.03;4918073;29;20389;-93
2022/09/19 05:00:36;;;;;;;14.07;1.98;;;;;;;7.85;100.00;101869.81;4922640;29;20028;-94
2022/09/19 05:03:07;;;;;;;12.77;1.90;;;;;;;7.94;100.00;101887.06;4898760;29;20073;-95
2022/09/19 05:05:34;;;;;;;8.27;2.00;;;;;;;7.84;100.00;101869.81;4917668;29;20521;-94
2022/09/19 05:07:59;;;;;;;19.40;2.58;;;;;;;7.83;100.00;101875.84;4890393;29;20032;-94
2022/09/19 05:10:25;;;;;;;15.85;2.50;;;;;;;7.90;100.00;101890.50;4915609;29;20051;-94
2022/09/19 05:12:51;;;;;;;10.50;2.00;;;;;;;7.90;100.00;101893.94;4911788;29;20034;-94
2022/09/19 05:15:17;;;;;;;10.45;1.90;;;;;;;8.01;100.00;101900.84;4899984;29;20083;-94
2022/09/19 05:17:42;;;;;;;11.73;2.20;;;;;;;7.92;100.00;101888.75;4907389;29;20030;-94
2022/09/19 05:20:08;;;;;;;7.85;1.65;;;;;;;7.85;100.00;101885.28;4907624;29;20674;-94
2022/09/19 05:22:33;;;;;;;14.38;2.40;;;;;;;7.93;100.00;101893.06;4900710;29;20031;-94
2022/09/19 05:25:03;;;;;;;11.20;2.00;;;;;;;7.88;100.00;101890.47;4918678;29;20514;-95
2022/09/19 05:27:31;;;;;;;11.20;2.25;;;;;;;7.82;100.00;101893.03;4918629;29;20032;-94
2022/09/19 05:29:59;;;;;;;8.75;2.10;;;;;;;7.81;100.00;101890.44;4903664;29;20048;-94
2022/09/19 05:32:25;;;;;;;9.68;2.00;;;;;;;7.83;100.00;101889.59;4905046;29;20032;-95
2022/09/19 05:34:53;;;;;;;8.52;1.98;;;;;;;7.94;100.00;101908.56;4902011;29;20162;-94
2022/09/19 05:37:18;;;;;;;10.02;1.92;;;;;;;7.97;100.00;101910.31;4879459;29;20115;-94
2022/09/19 05:39:43;;;;;;;8.00;1.98;;;;;;;7.95;100.00;101914.59;4891201;29;20106;-94
2022/09/19 05:47:38;;;;;;;12.43;2.10;;;;;;;7.93;100.00;101911.13;5525206;23;20063;-93
2022/09/19 05:50:04;;;;;;;6.75;1.80;;;;;;;8.01;100.00;101916.34;4907712;29;20064;-90
2022/09/19 05:55:14;;;;;;;8.35;2.30;;;;;;;8.21;100.00;101945.69;4926286;29;20066;-90
2022/09/19 05:57:40;;;;;;;10.38;2.25;;;;;;;8.20;100.00;101936.19;4910910;29;20055;-91
2022/09/19 06:00:06;;;;;;;14.45;2.15;;;;;;;8.30;100.00;101932.81;4930081;29;20482;-91
2022/09/19 06:02:32;;;;;;;15.55;2.60;;;;;;;8.43;100.00;101950.09;4928575;29;20034;-91
2022/09/19 06:04:58;;;;;;;15.18;2.25;;;;;;;8.53;100.00;101951.00;4928930;29;20028;-91
2022/09/19 06:07:23;;;;;;;10.60;2.20;;;;;;;8.48;100.00;101934.59;4915849;29;20034;-90
2022/09/19 06:09:52;;;;;;;10.98;2.22;;;;;;;8.53;100.00;101926.00;4932121;29;20504;-91
2022/09/19 06:12:20;;;;;;;6.78;2.30;;;;;;;8.69;100.00;101943.25;4914301;29;20026;-90
2022/09/19 06:14:45;;;;;;;17.02;2.83;;;;;;;8.76;100.00;101956.19;4929561;29;20042;-91
2022/09/19 06:17:13;;;;;;;9.82;2.50;;;;;;;8.83;100.00;101955.34;4932016;29;20032;-91
2022/09/19 06:19:40;;;;;;;13.40;2.50;;;;;;;8.80;100.00;101945.03;4914615;29;20027;-90
2022/09/19 06:22:05;;;;;;;13.13;2.53;;;;;;;8.86;100.00;101945.03;4932293;29;20032;-91
2022/09/19 06:24:31;;;;;;;12.07;2.45;;;;;;;8.93;100.00;101957.97;4932602;29;20098;-93
2022/09/19 06:26:57;;;;;;;13.27;2.45;;;;;;;8.97;100.00;101951.91;4940150;29;20032;-92
2022/09/19 06:29:24;;;;;;;11.32;2.47;;;;;;;9.01;100.00;101945.00;4897476;29;20028;-92
2022/09/19 06:31:50;;;;;;;13.88;3.00;;;;;;;9.07;100.00;101955.38;4920562;29;20082;-91
2022/09/19 06:34:15;;;;;;;12.63;2.50;;;;;;;9.18;100.00;101968.31;4925830;29;20095;-91
2022/09/19 06:36:44;;;;;;;16.73;2.53;;;;;;;9.07;100.00;101947.63;4928587;29;20040;-93
2022/09/19 06:39:12;;;;;;;13.52;2.53;;;;;;;9.17;100.00;101962.25;4932038;29;20027;-92
2022/09/19 06:41:38;;;;;;;11.00;2.20;;;;;;;9.20;100.00;101961.41;4933111;29;20015;-93
2022/09/19 06:44:07;;;;;;;13.00;2.10;;;;;;;9.28;100.00;101976.06;4914874;29;20024;-93
2022/09/19 06:46:37;;;;;;;13.95;2.45;;;;;;;9.21;100.00;101956.22;4917629;29;20115;-94
2022/09/19 06:49:08;;;;;;;8.55;2.03;;;;;;;9.14;100.00;101951.06;4899264;29;20112;-96
2022/09/19 06:51:40;;;;;;;8.52;2.05;;;;;;;9.13;100.00;101951.94;4916530;29;20031;-96
2022/09/19 06:54:08;;;;;;;8.55;2.28;;;;;;;9.21;100.00;101960.56;4914129;29;20031;-96
2022/09/19 06:56:55;;;;;;;11.63;2.00;;;;;;;9.20;100.00;101967.44;4907742;29;20013;-96
2022/09/19 06:59:23;;;;;;;11.93;2.22;;;;;;;9.28;100.00;101972.63;4927877;29;20031;-96
2022/09/19 07:01:57;;;;;;;9.45;2.50;;;;;;;9.50;100.00;102006.25;4909879;29;20032;-95
2022/09/19 07:04:23;;;;;;;;;;;;;;;9.65;100.00;102004.50;4914984;29;20096;-96
2022/09/19 07:06:56;;;;;;;8.40;2.10;;;;;;;9.63;100.00;101982.91;4911721;29;19934;-96
2022/09/19 07:09:25;;;;;;;11.23;2.33;;;;;;;9.89;100.00;102005.31;4931190;29;20071;-95
2022/09/19 07:11:53;;;;;;;12.10;2.20;;;;;;;9.85;100.00;101969.94;4909460;29;20039;-95
2022/09/19 07:14:22;;;;;;;12.65;2.70;;;;;;;9.99;100.00;101977.66;4934619;29;20059;-96
2022/09/19 07:16:49;;;;;;;15.27;2.35;;;;;;;10.14;100.00;101993.16;4904613;29;20110;-95
2022/09/19 07:19:18;;;;;;;11.43;2.42;;;;;;;10.21;100.00;101992.31;4910214;29;20028;-96
2022/09/19 07:21:47;;;;;;;10.10;2.20;;;;;;;10.27;100.00;101992.28;4900876;29;20060;-96
2022/09/19 07:24:13;;;;;;;15.80;2.28;;;;;;;10.41;100.00;102012.97;4918780;29;20032;-94
2022/09/19 07:26:39;;;;;;;13.30;2.25;;;;;;;10.36;100.00;102008.69;4909082;29;20092;-96
2022/09/19 07:29:04;;;;;;;10.05;2.05;;;;;;;10.31;100.00;101985.34;4891042;29;20029;-95
2022/09/19 07:31:30;;;;;;;10.80;2.70;;;;;;;10.62;100.00;102020.66;4902799;29;20023;-95
2022/09/19 07:33:56;;;;;;;13.77;2.20;;;;;;;10.72;100.00;102008.47;4918158;29;20076;-96
2022/09/19 07:36:22;;;;;;;12.07;2.08;;;;;;;10.84;100.00;102012.75;4903909;29;20072;-96
2022/09/19 07:38:51;;;;;;;9.43;2.00;;;;;;;10.90;100.00;102010.13;4923801;29;20028;-96
2022/09/19 07:41:17;;;;;;;7.68;1.98;;;;;;;10.91;100.00;102001.47;4894947;29;20031;-94
2022/09/19 07:43:47;;;;;;;11.20;2.20;;;;;;;10.99;100.00;102012.63;4916566;29;20517;-92
2022/09/19 07:46:15;;;;;;;10.98;2.28;;;;;;;11.02;100.00;102021.28;4897133;29;20033;-93
2022/09/19 07:48:42;;;;;;;12.93;2.65;;;;;;;11.06;100.00;102022.09;4928526;29;20043;-91
2022/09/19 07:51:08;;;;;;;8.80;1.90;;;;;;;11.13;100.00;102033.28;4898796;29;20028;-92
2022/09/19 07:53:34;;;;;;;8.20;2.20;;;;;;;11.33;100.00;102041.78;4911102;29;20027;-92
2022/09/19 07:56:01;;;;;;;6.80;2.00;;;;;;;11.40;100.00;102022.72;4902089;29;20494;-91
2022/09/19 07:58:27;;;;;;;8.88;1.98;;;;;;;11.64;100.00;102045.03;4893756;29;20039;-92
2022/09/19 08:00:53;;;;;;;8.95;1.90;;;;;;;11.70;100.00;102040.63;4889136;29;20027;-92
2022/09/19 08:03:20;;;;;;;11.55;2.03;;;;;;;11.72;100.00;102038.91;4928248;29;20171;-92
2022/09/19 08:05:49;;;;;;;9.85;2.03;;;;;;;11.86;100.00;102041.38;4918162;29;20078;-92
2022/09/19 08:08:16;;;;;;;13.13;2.28;;;;;;;11.84;100.00;102032.75;4898607;29;20413;-91
2022/09/19 08:10:42;;;;;;;11.30;2.47;;;;;;;11.84;100.00;102030.16;4934333;29;20027;-91
2022/09/19 08:13:09;;;;;;;10.40;2.30;;;;;;;11.86;100.00;102028.41;4887848;29;20021;-92
2022/09/19 08:15:35;;;;;;;11.63;2.15;;;;;;;11.96;100.00;102032.63;4905553;29;20409;-92
2022/09/19 08:18:04;;;;;;;12.10;2.35;;;;;;;12.11;100.00;102042.00;4919834;29;20402;-92
2022/09/19 08:20:32;;;;;;;11.40;2.60;;;;;;;12.22;100.00;102051.38;4932189;29;20046;-93
2022/09/19 08:22:59;;;;;;;14.73;2.58;;;;;;;12.34;100.00;102049.53;4898513;29;20044;-95
2022/09/19 08:25:26;;;;;;;10.10;2.30;;;;;;;12.37;100.00;102065.94;4916115;29;20445;-94
2022/09/19 08:27:53;;;;;;;11.40;2.33;;;;;;;12.42;100.00;102074.56;4907563;29;20391;-94
2022/09/19 08:30:19;;;;;;;14.00;2.45;;;;;;;12.34;100.00;102057.34;4891727;29;20034;-95
2022/09/19 08:32:49;;;;;;;9.98;2.03;;;;;;;12.44;100.00;102077.16;4907187;29;20042;-94
2022/09/19 08:35:17;;;;;;;8.40;1.73;;;;;;;12.42;100.00;102060.72;4898067;29;20050;-94
2022/09/19 08:37:44;;;;;;;11.02;2.10;;;;;;;12.44;100.00;102057.19;4901341;29;20031;-95
2022/09/19 08:40:21;;;;;;;11.18;1.95;;;;;;;12.52;100.00;102060.56;4911567;29;20031;-94
2022/09/19 08:42:58;;;;;;;6.40;1.63;;;;;;;12.71;100.00;102081.16;4917808;29;20069;-94
2022/09/19 08:45:31;;;;;;;7.65;1.98;;;;;;;12.71;100.00;102084.63;4910365;29;20154;-93
2022/09/19 08:48:00;;;;;;;10.38;2.13;;;;;;;12.57;100.00;102074.38;4905715;29;20581;-95
2022/09/19 08:50:29;;;;;;;10.50;1.80;;;;;;;12.48;100.00;102058.91;4906279;29;20111;-94
2022/09/19 08:52:59;;;;;;;14.90;2.45;;;;;;;12.62;100.00;102093.38;4926714;29;20028;-94
2022/09/19 08:55:29;;;;;;;8.70;1.77;;;;;;;12.54;100.00;102071.84;4925053;29;20482;-93
2022/09/19 08:57:58;;;;;;;10.73;1.85;;;;;;;12.61;100.00;102072.63;4881551;29;20132;-94
2022/09/19 09:00:25;;;;;;;13.32;2.05;;;;;;;12.78;100.00;102073.25;4917531;29;20024;-94
2022/09/19 09:03:16;;;;;;;9.05;2.10;;;;;;;12.95;100.00;102091.25;4910530;29;20032;-94
2022/09/19 09:05:42;;;;;;;9.63;2.00;;;;;;;13.13;100.00;102088.41;4907085;29;20051;-93
2022/09/19 09:08:28;;;;;;;11.40;2.20;;;;;;;13.23;100.00;102083.94;4918288;29;20031;-94
2022/09/19 09:11:30;;;;;;;11.75;2.03;;;;;;;13.20;100.00;102069.22;4918140;29;20085;-93
2022/09/19 09:14:14;;;;;;;14.60;2.58;;;;;;;13.35;100.00;102076.81;4910104;29;20083;-94
2022/09/19 09:17:10;;;;;;;11.98;2.15;;;;;;;13.29;100.00;102058.69;4912949;29;20032;-94
2022/09/19 09:19:53;;;;;;;11.40;1.88;;;;;;;13.52;100.00;102073.06;4899848;29;20977;-93
2022/09/19 09:22:31;;;;;;;12.40;2.08;;;;;;;13.65;100.00;102079.78;4886929;29;20040;-92
2022/09/19 09:25:09;;;;;;;11.00;1.77;;;;;;;13.71;98.75;102053.66;4907821;29;20028;-94
2022/09/19 09:27:42;;;;;;;10.93;1.83;;;;;;;13.97;99.07;102066.22;4929640;29;20023;-94
2022/09/19 09:30:20;;;;;;;13.80;2.10;;;;;;;14.02;99.20;102074.81;4908098;29;20032;-94
2022/09/19 09:33:22;;;;;;;20.48;2.17;;;;;;;13.98;100.00;102055.78;4898732;29;20062;-93
2022/09/19 09:35:54;;;;;;;9.43;1.85;;;;;;;14.13;95.36;102062.44;4890406;29;20480;-94
2022/09/19 09:38:22;;;;;;;8.52;1.67;;;;;;;14.27;94.13;102075.19;4906644;29;20047;-94
2022/09/19 09:41:47;;;;;;;9.93;1.77;;;;;;;14.35;97.73;102062.88;4896562;29;20039;-94
2022/09/19 09:44:13;;;;;;;9.75;1.70;;;;;;;14.54;93.88;102078.16;4904777;29;20419;-94
2022/09/19 09:46:53;;;;;;;12.98;1.52;;;;;;;14.60;92.48;102079.81;4902863;29;20502;-94
2022/09/19 09:49:41;;;;;;;10.27;1.70;;;;;;;14.53;90.38;102065.16;4905576;29;20036;-95
2022/09/19 09:52:28;;;;;;;11.82;1.83;;;;;;;14.77;90.84;102069.88;4899943;29;20122;-95
2022/09/19 09:57:33;;;;;;;9.93;1.95;;;;;;;15.19;91.17;102044.53;5212008;23;20072;-93
2022/09/19 10:06:34;;;;;;;7.93;2.00;;;;;;;14.54;92.01;102079.91;4931123;29;20695;-93
2022/09/19 10:09:23;;;;;;;5.93;1.42;;;;;;;13.80;95.49;102072.59;4919329;29;20038;-91
2022/09/19 10:11:59;;;;;;;6.82;1.67;;;;;;;13.50;99.22;102095.69;4926256;29;20031;-92
2022/09/19 10:14:28;;;;;;;9.68;1.73;;;;;;;13.28;100.00;102095.16;4926554;29;20026;-92
2022/09/19 10:17:00;;;;;;;9.38;1.95;;;;;;;13.21;100.00;102089.19;4914246;29;20170;-92
2022/09/19 10:19:48;;;;;;;10.63;1.98;;;;;;;13.43;100.00;102093.19;4913317;29;20027;-92
2022/09/19 10:22:16;;;;;;;7.50;1.58;;;;;;;13.51;100.00;102069.59;4915414;29;20078;-92
2022/09/19 10:24:46;;;;;;;10.73;2.03;;;;;;;13.87;100.00;102101.16;4913390;29;20196;-91
2022/09/19 10:27:24;;;;;;;8.40;1.58;;;;;;;13.90;100.00;102077.66;4914024;29;20040;-91
2022/09/19 10:30:01;;;;;;;9.13;1.92;;;;;;;13.94;100.00;102102.75;4912854;29;20082;-91
2022/09/19 10:32:37;;;;;;;8.73;1.48;;;;;;;13.79;100.00;102096.06;4906610;29;20091;-92
2022/09/19 10:35:33;;;;;;;8.13;1.42;;;;;;;13.89;100.00;102107.19;4898200;29;20115;-92
2022/09/19 10:38:00;;;;;;;10.10;1.75;;;;;;;13.80;100.00;102109.06;4908513;29;20032;-92
2022/09/19 10:40:27;;;;;;;8.43;1.77;;;;;;;13.75;100.00;102104.81;4910040;29;20032;-93
2022/09/19 10:42:55;;;;;;;5.45;1.35;;;;;;;13.64;100.00;102099.81;4932990;29;20436;-94
2022/09/19 10:45:26;;;;;;;8.05;1.55;;;;;;;13.57;100.00;102092.97;4926897;29;20110;-93
2022/09/19 10:47:55;;;;;;;8.18;1.48;;;;;;;13.60;100.00;102092.91;4907373;29;20039;-93
2022/09/19 10:50:22;;;;;;;8.27;1.30;;;;;;;13.57;100.00;102077.34;4917436;29;20032;-93
2022/09/19 10:52:50;;;;;;;7.13;1.40;;;;;;;13.70;100.00;102089.28;4932855;29;20027;-93
2022/09/19 10:55:24;;;;;;;6.47;1.48;;;;;;;13.76;99.64;102083.09;4925446;29;20179;-92
2022/09/19 10:57:59;;;;;;;9.10;1.40;;;;;;;13.95;99.47;102094.91;4928368;29;20063;-93
2022/09/19 11:00:48;;;;;;;10.30;1.50;;;;;;;14.21;100.00;102081.41;4901393;29;20027;-93
2022/09/19 11:03:23;;;;;;;7.80;1.80;;;;;;;14.62;97.33;102101.50;4902791;29;20041;-92
2022/09/19 11:06:13;;;;;;;7.63;1.40;;;;;;;15.07;98.37;102083.16;4887600;29;20028;-93
2022/09/19 11:08:57;;;;;;;8.32;1.40;;;;;;;15.41;98.00;102091.94;4892818;29;20040;-92
2022/09/19 11:11:40;;;;;;;;;;;;;;;15.53;95.84;102098.63;4905536;29;20028;-93
2022/09/19 11:14:32;;;;;;;3.72;0.80;;;;;;;15.40;88.08;102098.03;4908636;29;19915;-92
2022/09/19 11:17:29;;;;;;;2.83;0.75;;;;;;;15.19;89.08;102106.38;4930618;29;20032;-93
2022/09/19 11:20:29;;;;;;;3.85;0.98;;;;;;;14.98;90.17;102105.97;4904935;29;20046;-94
2022/09/19 11:23:10;;;;;;;5.50;1.00;;;;;;;14.83;88.58;102110.63;4904360;29;20025;-95
2022/09/19 11:25:58;;;;;;;5.57;1.02;;;;;;;14.74;90.73;102100.41;4913416;29;20059;-93
2022/09/19 11:28:40;;;;;;;5.50;1.40;;;;;;;14.62;88.96;102104.97;4900985;29;20029;-95
2022/09/19 11:31:44;;;;;;;6.82;1.30;;;;;;;14.56;91.04;102102.47;4927626;29;20220;-96
2022/09/19 11:34:20;;;;;;;6.18;1.25;;;;;;;14.52;89.34;102103.44;4912597;29;20044;-95
2022/09/19 11:37:03;;;;;;;8.70;1.20;;;;;;;14.47;86.93;102112.22;4903338;29;20025;-96
2022/09/19 11:39:52;;;;;;;5.47;1.10;;;;;;;14.49;89.07;102108.72;4911093;29;20047;-95
2022/09/19 11:42:33;;;;;;;10.63;1.35;;;;;;;14.53;87.92;102107.75;4898052;29;20020;-94
2022/09/19 11:45:22;;;;;;;8.88;1.48;;;;;;;14.60;88.16;102101.53;4889243;29;20036;-94
2022/09/19 11:48:01;;;;;;;11.93;1.80;;;;;;;14.85;90.16;102093.19;4914308;29;20402;-95
2022/09/19 11:50:48;;;;;;;9.65;1.50;;;;;;;15.01;89.87;102073.72;4923253;29;20047;-94
2022/09/19 11:53:41;;;;;;;8.77;1.48;;;;;;;15.41;88.07;102092.78;4897698;29;20036;-93
2022/09/19 12:00:23;;;;;;;5.22;1.23;;;;;;;14.98;87.46;102076.38;4919289;29;20035;-96
2022/09/19 12:03:27;;;;;;;5.10;1.20;;;;;;;14.63;86.43;102100.59;4846281;29;20041;-95
2022/09/19 12:07:03;;;;;;;5.18;1.17;;;;;;;14.36;91.90;102098.50;4834701;29;20114;-95
2022/09/19 12:10:48;;;;;;;;;;;;;;;;;;;;;
2022/09/19 12:14:04;;;;;;;4.63;1.23;;;;;;;14.04;92.80;102058.25;4881382;29;20088;-96
2022/09/19 12:17:44;;;;;;;;;;;;;;;;;;;;;
2022/09/19 12:20:53;;;;;;;5.18;1.20;;;;;;;14.17;94.78;102069.31;4878477;29;20564;-96